createdAt,value
2019-04-22T00:00:32.810Z,94.10
2019-04-22T00:03:02.804Z,94.30
2019-04-22T00:05:52.911Z,94.30
2019-04-22T00:08:24.278Z,94.40
2019-04-22T00:10:54.299Z,94.40
2019-04-22T00:13:29.189Z,94.50
2019-04-22T00:15:47.785Z,94.40
2019-04-22T00:18:36.178Z,94.20
2019-04-22T00:20:52.720Z,94.40
2019-04-22T00:23:23.459Z,94.50
2019-04-22T00:25:59.727Z,94.50
2019-04-22T00:28:21.684Z,94.50
2019-04-22T00:30:53.810Z,94.40
2019-04-22T00:33:29.068Z,94.30
2019-04-22T00:35:54.550Z,94.60
2019-04-22T00:40:56.214Z,94.10
2019-04-22T00:43:24.304Z,94.20
2019-04-22T00:46:11.101Z,94.00
2019-04-22T00:48:30.541Z,94.10
2019-04-22T00:51:04.194Z,94.30
2019-04-22T00:58:41.183Z,94.90
2019-04-22T01:01:09.009Z,94.50
2019-04-22T01:03:44.189Z,94.50
2019-04-22T01:06:13.006Z,94.60
2019-04-22T01:08:50.308Z,94.80
2019-04-22T01:11:14.778Z,95.00
2019-04-22T01:13:42.716Z,95.10
2019-04-22T01:16:13.394Z,95.10
2019-04-22T01:18:38.168Z,95.20
2019-04-22T01:23:34.628Z,95.50
2019-04-22T01:26:08.048Z,95.60
2019-04-22T01:28:34.155Z,95.70
2019-04-22T01:31:01.984Z,95.80
2019-04-22T01:33:32.681Z,95.90
2019-04-22T01:36:17.606Z,96.00
2019-04-22T01:38:49.958Z,96.10
2019-04-22T01:41:23.471Z,96.20
2019-04-22T01:44:00.615Z,96.20
2019-04-22T01:46:16.302Z,96.20
2019-04-22T01:48:52.452Z,96.20
2019-04-22T01:51:26.779Z,96.00
2019-04-22T01:53:50.422Z,95.80
2019-04-22T01:56:24.192Z,95.90
2019-04-22T01:58:38.074Z,95.90
2019-04-22T02:01:22.578Z,95.90
2019-04-22T02:03:46.738Z,96.20
2019-04-22T02:06:15.714Z,96.10
2019-04-22T02:11:19.417Z,96.00
2019-04-22T02:13:49.525Z,95.90
2019-04-22T02:16:14.552Z,96.00
2019-04-22T02:18:44.955Z,95.90
2019-04-22T02:21:13.818Z,95.90
2019-04-22T02:28:56.449Z,96.20
2019-04-22T02:31:36.088Z,96.20
2019-04-22T02:39:00.130Z,96.30
2019-04-22T02:46:50.109Z,96.30
2019-04-22T02:51:22.219Z,96.40
2019-04-22T02:56:27.445Z,96.50
2019-04-22T03:01:25.002Z,96.50
2019-04-22T03:04:06.811Z,96.60
2019-04-22T03:06:24.687Z,96.50
2019-04-22T03:08:45.648Z,96.40
2019-04-22T03:11:19.188Z,96.30
2019-04-22T03:13:55.180Z,96.30
2019-04-22T03:18:54.976Z,96.30
2019-04-22T03:21:16.120Z,96.20
2019-04-22T03:26:21.876Z,96.00
2019-04-22T03:28:51.280Z,95.90
2019-04-22T03:39:40.187Z,95.80
2019-04-22T03:42:07.137Z,96.00
2019-04-22T03:47:01.941Z,96.00
2019-04-22T03:54:29.191Z,95.40
2019-04-22T03:57:17.708Z,95.40
2019-04-22T03:59:26.892Z,95.20
2019-04-22T04:01:56.181Z,95.20
2019-04-22T04:04:25.984Z,95.30
2019-04-22T04:07:01.758Z,95.60
2019-04-22T04:14:26.326Z,95.50
2019-04-22T04:17:02.154Z,95.70
2019-04-22T04:19:30.816Z,95.80
2019-04-22T04:21:48.802Z,95.90
2019-04-22T04:26:55.011Z,95.90
2019-04-22T04:29:35.661Z,95.80
2019-04-22T04:46:51.676Z,96.10
2019-04-22T04:49:18.191Z,96.00
2019-04-22T04:54:23.825Z,95.90
2019-04-22T04:56:44.514Z,95.90
2019-04-22T05:00:25.779Z,95.70
2019-04-22T05:01:44.940Z,95.50
2019-04-22T05:06:51.257Z,95.40
2019-04-22T05:11:53.963Z,95.60
2019-04-22T05:14:12.780Z,95.40
2019-04-22T05:16:48.179Z,95.30
2019-04-22T05:19:40.538Z,95.30
2019-04-22T05:22:25.651Z,95.60
2019-04-22T05:24:31.407Z,95.70
2019-04-22T05:27:11.303Z,96.00
2019-04-22T05:29:42.134Z,95.70
2019-04-22T05:31:56.899Z,95.60
2019-04-22T05:34:28.053Z,95.50
2019-04-22T05:37:02.000Z,95.50
2019-04-22T05:39:24.613Z,95.30
2019-04-22T05:42:07.535Z,95.30
2019-04-22T05:44:29.473Z,95.30
2019-04-22T05:46:52.800Z,95.30
2019-04-22T05:49:23.500Z,95.60
2019-04-22T05:51:55.246Z,95.40
2019-04-22T05:54:28.983Z,96.10
2019-04-22T05:56:51.365Z,95.50
2019-04-22T05:59:32.537Z,95.40
2019-04-22T06:02:02.876Z,95.40
2019-04-22T06:04:23.254Z,95.30
2019-04-22T06:06:54.089Z,95.40
2019-04-22T06:09:30.568Z,95.10
2019-04-22T06:11:55.450Z,94.40
2019-04-22T06:14:24.849Z,93.90
2019-04-22T06:16:58.738Z,93.00
2019-04-22T06:19:24.791Z,92.10
2019-04-22T06:21:57.958Z,90.70
2019-04-22T06:24:27.962Z,89.70
2019-04-22T06:27:10.239Z,87.60
2019-04-22T06:29:27.075Z,85.90
2019-04-22T06:32:22.305Z,84.10
2019-04-22T06:34:28.873Z,82.10
2019-04-22T06:37:07.613Z,79.60
2019-04-22T06:39:34.452Z,78.20
2019-04-22T06:42:01.093Z,78.50
2019-04-22T06:44:34.218Z,78.50
2019-04-22T06:46:56.484Z,79.90
2019-04-22T06:49:31.914Z,80.30
2019-04-22T06:52:02.493Z,79.00
2019-04-22T06:54:28.277Z,79.50
2019-04-22T06:59:26.582Z,78.40
2019-04-22T07:04:27.948Z,78.60
2019-04-22T07:07:02.932Z,78.10
2019-04-22T07:09:36.920Z,76.60
2019-04-22T07:12:06.367Z,75.90
2019-04-22T07:14:30.239Z,73.70
2019-04-22T07:17:02.203Z,73.40
2019-04-22T07:19:33.536Z,75.70
2019-04-22T07:22:09.576Z,76.20
2019-04-22T07:24:40.659Z,77.00
2019-04-22T07:27:08.625Z,78.50
2019-04-22T07:29:37.508Z,79.70
2019-04-22T07:32:01.562Z,81.00
2019-04-22T07:34:31.068Z,81.50
2019-04-22T07:37:13.072Z,81.90
2019-04-22T07:39:35.052Z,82.20
2019-04-22T07:42:10.636Z,82.80
2019-04-22T07:44:43.572Z,82.90
2019-04-22T07:47:13.888Z,83.10
2019-04-22T07:49:50.827Z,84.40
2019-04-22T07:52:15.999Z,85.00
2019-04-22T07:54:46.722Z,85.50
2019-04-22T07:57:23.742Z,84.90
2019-04-22T07:59:54.092Z,85.10
2019-04-22T08:02:26.626Z,84.50
2019-04-22T08:05:03.634Z,85.20
2019-04-22T08:07:17.831Z,85.50
2019-04-22T08:09:59.707Z,85.00
2019-04-22T08:12:20.306Z,86.10
2019-04-22T08:17:50.366Z,86.70
2019-04-22T08:19:55.973Z,87.10
2019-04-22T08:22:14.592Z,89.20
2019-04-22T08:27:17.904Z,88.20
2019-04-22T08:29:58.723Z,86.20
2019-04-22T08:32:22.418Z,84.00
2019-04-22T08:34:47.236Z,82.80
2019-04-22T08:39:53.446Z,79.50
2019-04-22T08:42:30.627Z,78.70
2019-04-22T08:45:09.603Z,79.00
2019-04-22T08:47:29.197Z,80.20
2019-04-22T08:49:57.010Z,80.40
2019-04-22T08:52:20.890Z,80.40
2019-04-22T08:54:53.663Z,80.70
2019-04-22T08:57:31.014Z,80.90
2019-04-22T08:59:50.173Z,81.90
2019-04-22T09:04:49.436Z,82.30
2019-04-22T09:07:31.779Z,83.80
2019-04-22T09:10:05.261Z,84.30
2019-04-22T09:12:26.407Z,84.50
2019-04-22T09:14:45.610Z,84.50
2019-04-22T09:17:21.364Z,83.90
2019-04-22T09:19:48.099Z,82.60
2019-04-22T09:22:26.334Z,79.20
2019-04-22T09:24:47.030Z,76.90
2019-04-22T09:29:43.110Z,55.60
2019-04-22T09:32:34.832Z,47.60
2019-04-22T09:34:58.911Z,43.70
2019-04-22T09:37:21.066Z,41.00
2019-04-22T09:39:50.808Z,38.00
2019-04-22T09:42:13.431Z,35.30
2019-04-22T09:44:59.236Z,34.80
2019-04-22T09:47:11.714Z,34.50
2019-04-22T09:49:51.866Z,32.80
2019-04-22T09:52:13.308Z,32.70
2019-04-22T09:54:51.019Z,33.60
2019-04-22T09:57:12.053Z,34.30
2019-04-22T09:59:43.760Z,34.80
2019-04-22T10:04:47.957Z,35.20
2019-04-22T10:07:20.019Z,34.50
2019-04-22T10:12:16.676Z,30.60
2019-04-22T10:14:48.017Z,31.00
2019-04-22T10:17:15.398Z,30.50
2019-04-22T10:19:41.066Z,30.00
2019-04-22T10:24:39.170Z,27.80
2019-04-22T10:27:07.221Z,27.40
2019-04-22T10:29:47.353Z,28.30
2019-04-22T10:32:08.531Z,27.80
2019-04-22T10:34:26.970Z,28.20
2019-04-22T10:36:52.772Z,28.10
2019-04-22T10:39:16.060Z,27.80
2019-04-22T10:41:44.304Z,27.00
2019-04-22T10:44:13.034Z,26.80
2019-04-22T10:46:42.298Z,26.60
2019-04-22T10:49:10.541Z,26.00
2019-04-22T10:51:38.005Z,25.50
2019-04-22T10:54:07.279Z,24.20
2019-04-22T10:56:35.180Z,24.50
2019-04-22T10:59:04.786Z,23.80
2019-04-22T11:01:38.429Z,23.90
2019-04-22T11:04:09.172Z,24.30
2019-04-22T11:06:41.015Z,23.80
2019-04-22T11:09:08.431Z,23.00
2019-04-22T11:11:46.717Z,23.00
2019-04-22T11:14:07.483Z,23.20
2019-04-22T11:16:39.565Z,22.80
2019-04-22T11:19:07.771Z,22.90
2019-04-22T11:21:36.000Z,22.80
2019-04-22T11:24:05.121Z,22.80
2019-04-22T11:26:34.636Z,22.60
2019-04-22T11:29:03.612Z,22.80
2019-04-22T11:31:32.418Z,23.00
2019-04-22T11:34:00.776Z,22.50
2019-04-22T11:36:30.714Z,23.10
2019-04-22T11:39:07.610Z,23.10
2019-04-22T11:41:36.150Z,22.90
2019-04-22T11:44:05.432Z,23.10
2019-04-22T11:46:36.196Z,23.10
2019-04-22T11:49:05.847Z,22.90
2019-04-22T11:51:33.908Z,22.50
2019-04-22T11:54:03.008Z,21.50
2019-04-22T11:56:31.364Z,21.30
2019-04-22T11:59:00.468Z,21.30
2019-04-22T12:01:30.802Z,22.40
2019-04-22T12:03:59.967Z,23.40
2019-04-22T12:06:28.212Z,22.30
2019-04-22T12:09:05.860Z,22.30
2019-04-22T12:11:34.570Z,21.80
2019-04-22T12:14:02.218Z,22.40
2019-04-22T12:16:31.649Z,22.80
2019-04-22T12:19:00.770Z,22.40
2019-04-22T12:21:29.026Z,22.70
2019-04-22T12:23:56.921Z,22.80
2019-04-22T12:26:25.465Z,23.40
2019-04-22T12:28:55.075Z,23.70
2019-04-22T12:31:23.780Z,23.90
2019-04-22T12:33:53.094Z,23.40
2019-04-22T12:36:22.497Z,24.10
2019-04-22T12:38:51.470Z,24.20
2019-04-22T12:41:19.768Z,25.40
2019-04-22T12:43:49.260Z,27.70
2019-04-22T12:46:18.539Z,30.50
2019-04-22T12:48:46.920Z,33.20
2019-04-22T12:51:15.356Z,35.10
2019-04-22T12:53:45.839Z,37.90
2019-04-22T12:56:12.692Z,38.70
2019-04-22T12:58:41.301Z,39.90
2019-04-22T13:01:10.776Z,41.10
2019-04-22T13:03:38.471Z,42.30
2019-04-22T13:06:08.011Z,43.70
2019-04-22T13:08:35.885Z,44.50
2019-04-22T13:11:10.360Z,44.70
2019-04-22T13:13:34.493Z,44.00
2019-04-22T13:16:03.037Z,45.30
2019-04-22T13:18:38.116Z,44.50
2019-04-22T13:21:00.390Z,44.20
2019-04-22T13:23:29.659Z,43.80
2019-04-22T13:25:58.861Z,43.70
2019-04-22T13:28:27.244Z,44.40
2019-04-22T13:30:54.901Z,44.80
2019-04-22T13:33:23.216Z,45.80
2019-04-22T13:35:52.129Z,46.50
2019-04-22T13:38:22.759Z,47.50
2019-04-22T13:41:02.191Z,47.60
2019-04-22T13:43:20.829Z,47.50
2019-04-22T13:45:49.790Z,49.30
2019-04-22T13:48:41.794Z,47.80
2019-04-22T13:51:18.607Z,48.00
2019-04-22T13:54:14.068Z,48.90
2019-04-22T13:56:07.679Z,49.90
2019-04-22T13:58:31.307Z,50.10
2019-04-22T14:00:46.679Z,49.80
2019-04-22T14:03:29.127Z,50.20
2019-04-22T14:05:58.409Z,50.10
2019-04-22T14:08:26.926Z,49.80
2019-04-22T14:10:54.514Z,50.40
2019-04-22T14:13:23.758Z,50.50
2019-04-22T14:15:52.833Z,50.80
2019-04-22T14:18:23.120Z,50.70
2019-04-22T14:20:51.795Z,51.70
2019-04-22T14:23:20.582Z,52.50
2019-04-22T14:25:48.507Z,52.80
2019-04-22T14:28:17.988Z,53.60
2019-04-22T14:30:46.395Z,53.90
2019-04-22T14:33:16.092Z,53.80
2019-04-22T14:35:44.045Z,54.10
2019-04-22T14:38:12.283Z,54.10
2019-04-22T14:40:41.453Z,54.10
2019-04-22T14:43:35.108Z,53.40
2019-04-22T14:46:15.465Z,53.20
2019-04-22T14:48:41.898Z,53.00
2019-04-22T14:51:00.971Z,53.10
2019-04-22T14:53:30.738Z,53.40
2019-04-22T14:55:42.352Z,53.90
2019-04-22T14:58:10.952Z,54.10
2019-04-22T15:00:40.104Z,53.80
2019-04-22T15:03:08.263Z,53.90
2019-04-22T15:05:36.518Z,54.90
2019-04-22T15:08:04.406Z,55.80
2019-04-22T15:10:31.938Z,55.30
2019-04-22T15:13:00.740Z,56.10
2019-04-22T15:15:56.575Z,56.10
2019-04-22T15:18:39.736Z,56.60
2019-04-22T15:21:11.050Z,57.60
2019-04-22T15:23:40.437Z,58.30
2019-04-22T15:26:08.613Z,58.50
2019-04-22T15:28:37.347Z,57.70
2019-04-22T15:31:05.762Z,57.80
2019-04-22T15:33:33.373Z,56.80
2019-04-22T15:36:01.482Z,56.90
2019-04-22T15:38:30.234Z,57.60
2019-04-22T15:40:58.661Z,58.60
2019-04-22T15:43:29.736Z,58.60
2019-04-22T15:45:58.689Z,59.30
2019-04-22T15:48:27.116Z,59.00
2019-04-22T15:50:55.012Z,59.20
2019-04-22T15:53:22.687Z,59.30
2019-04-22T15:55:50.451Z,58.90
2019-04-22T15:58:19.595Z,59.20
2019-04-22T16:00:57.674Z,59.60
2019-04-22T16:03:18.459Z,60.40
2019-04-22T16:05:46.245Z,59.70
2019-04-22T16:08:14.970Z,60.90
2019-04-22T16:10:43.862Z,59.70
2019-04-22T16:13:20.139Z,60.10
2019-04-22T16:15:42.703Z,60.20
2019-04-22T16:18:12.536Z,60.90
2019-04-22T16:20:40.511Z,60.90
2019-04-22T16:23:20.194Z,61.60
2019-04-22T16:26:24.365Z,62.60
2019-04-22T16:28:55.437Z,61.60
2019-04-22T16:31:21.838Z,62.90
2019-04-22T16:33:50.341Z,62.40
2019-04-22T16:36:18.611Z,63.10
2019-04-22T16:38:47.296Z,62.00
2019-04-22T16:41:15.136Z,61.90
2019-04-22T16:43:42.934Z,61.40
2019-04-22T16:46:11.700Z,62.50
2019-04-22T16:48:39.944Z,62.30
2019-04-22T16:51:09.766Z,62.70
2019-04-22T16:53:38.893Z,63.00
2019-04-22T16:56:06.885Z,64.10
2019-04-22T16:58:35.070Z,64.80
2019-04-22T17:01:06.987Z,65.60
2019-04-22T17:03:54.500Z,64.90
2019-04-22T17:06:35.681Z,64.70
2019-04-22T17:09:06.797Z,64.40
2019-04-22T17:11:35.964Z,65.20
2019-04-22T17:14:05.498Z,65.60
2019-04-22T17:16:34.521Z,65.00
2019-04-22T17:19:02.635Z,65.40
2019-04-22T17:21:31.766Z,65.60
2019-04-22T17:24:01.790Z,66.40
2019-04-22T17:26:30.484Z,66.70
2019-04-22T17:29:04.054Z,67.10
2019-04-22T17:31:31.003Z,67.60
2019-04-22T17:33:59.060Z,68.60
2019-04-22T17:36:26.783Z,68.30
2019-04-22T17:39:07.090Z,69.40
2019-04-22T17:41:38.650Z,69.50
2019-04-22T17:44:18.827Z,69.90
2019-04-22T17:46:54.822Z,70.10
2019-04-22T17:49:48.970Z,70.70
2019-04-22T17:52:21.216Z,72.30
2019-04-22T17:57:21.871Z,73.80
2019-04-22T17:59:47.002Z,75.00
2019-04-22T18:02:22.544Z,76.30
2019-04-22T18:04:46.341Z,77.50
2019-04-22T18:07:35.570Z,78.90
2019-04-22T18:10:21.011Z,79.80
2019-04-22T18:12:33.799Z,80.50
2019-04-22T18:14:59.582Z,81.00
2019-04-22T18:17:29.087Z,82.10
2019-04-22T18:19:51.979Z,83.30
2019-04-22T18:22:19.925Z,84.00
2019-04-22T18:24:50.120Z,84.50
2019-04-22T18:27:40.167Z,85.10
2019-04-22T18:29:55.472Z,86.10
2019-04-22T18:32:25.521Z,86.40
2019-04-22T18:34:55.487Z,86.60
2019-04-22T18:37:26.831Z,86.50
2019-04-22T18:40:03.293Z,86.80
2019-04-22T18:42:25.664Z,86.80
2019-04-22T18:45:21.689Z,87.20
2019-04-22T18:47:25.327Z,87.00
2019-04-22T18:49:56.634Z,87.10
2019-04-22T18:53:03.683Z,87.60
2019-04-22T18:55:55.524Z,88.00
2019-04-22T18:58:25.966Z,87.70
2019-04-22T19:00:41.990Z,88.30
2019-04-22T19:03:16.521Z,89.00
2019-04-22T19:06:11.806Z,88.20
2019-04-22T19:08:33.369Z,87.50
2019-04-22T19:11:10.061Z,87.40
2019-04-22T19:16:24.393Z,87.80
2019-04-22T19:21:07.805Z,88.30
2019-04-22T19:23:40.703Z,87.10
2019-04-22T19:26:13.824Z,86.80
2019-04-22T19:28:40.502Z,86.50
2019-04-22T19:31:13.764Z,86.30
2019-04-22T19:33:56.328Z,86.20
2019-04-22T19:36:11.070Z,86.10
2019-04-22T19:38:27.713Z,85.80
2019-04-22T19:43:32.362Z,83.30
2019-04-22T19:46:01.996Z,83.60
2019-04-22T19:48:42.832Z,83.10
2019-04-22T19:51:12.723Z,82.50
2019-04-22T19:53:35.658Z,82.70
2019-04-22T19:55:59.928Z,82.10
2019-04-22T19:58:32.661Z,81.70
2019-04-22T20:01:20.957Z,81.20
2019-04-22T20:06:49.118Z,79.80
2019-04-22T20:09:25.093Z,79.10
2019-04-22T20:11:49.508Z,78.70
2019-04-22T20:14:21.931Z,79.10
2019-04-22T20:16:46.607Z,78.90
2019-04-22T20:19:24.822Z,78.80
2019-04-22T20:21:51.791Z,78.60
2019-04-22T20:24:11.431Z,78.80
2019-04-22T20:26:58.191Z,79.50
2019-04-22T20:29:27.023Z,79.40
2019-04-22T20:31:53.119Z,79.70
2019-04-22T20:34:38.122Z,79.90
2019-04-22T20:39:10.941Z,80.60
2019-04-22T20:41:45.822Z,81.10
2019-04-22T20:44:26.072Z,81.50
2019-04-22T20:46:47.509Z,81.80
2019-04-22T20:49:20.007Z,81.40
2019-04-22T20:51:53.208Z,81.10
2019-04-22T20:54:18.060Z,81.00
2019-04-22T20:56:45.075Z,80.60
2019-04-22T20:59:16.242Z,80.70
2019-04-22T21:01:43.133Z,80.40
2019-04-22T21:03:59.857Z,80.50
2019-04-22T21:06:42.773Z,79.60
2019-04-22T21:09:18.531Z,79.50
2019-04-22T21:11:38.442Z,79.20
2019-04-22T21:14:12.249Z,78.80
2019-04-22T21:16:44.846Z,78.50
2019-04-22T21:19:21.564Z,78.30
2019-04-22T21:21:54.731Z,78.50
2019-04-22T21:24:09.233Z,78.80
2019-04-22T21:26:45.607Z,79.40
2019-04-22T21:29:12.631Z,79.40
2019-04-22T21:31:48.114Z,80.20
2019-04-22T21:34:10.265Z,79.30
2019-04-22T21:36:48.131Z,79.90
2019-04-22T21:39:15.566Z,79.90
2019-04-22T21:41:44.731Z,79.50
2019-04-22T21:44:16.587Z,80.20
2019-04-22T21:46:51.326Z,80.70
2019-04-22T21:49:12.907Z,80.10
2019-04-22T21:51:44.858Z,81.50
2019-04-22T21:54:15.436Z,81.30
2019-04-22T21:57:11.891Z,81.70
2019-04-22T21:59:32.104Z,81.70
2019-04-22T22:02:07.270Z,81.70
2019-04-22T22:04:29.194Z,81.90
2019-04-22T22:06:51.183Z,81.80
2019-04-22T22:09:31.150Z,81.30
2019-04-22T22:11:57.484Z,81.60
2019-04-22T22:14:28.973Z,81.90
2019-04-22T22:16:54.670Z,82.40
2019-04-22T22:19:28.377Z,82.30
2019-04-22T22:22:06.113Z,83.40
2019-04-22T22:24:35.169Z,82.80
2019-04-22T22:27:01.432Z,83.10
2019-04-22T22:29:43.313Z,82.70
2019-04-22T22:32:07.927Z,84.60
2019-04-22T22:34:29.625Z,83.30
2019-04-22T22:36:53.112Z,82.90
2019-04-22T22:39:23.760Z,83.10
2019-04-22T22:41:41.660Z,83.40
2019-04-22T22:44:18.473Z,83.90
2019-04-22T22:47:01.859Z,83.90
2019-04-22T22:49:33.072Z,83.90
2019-04-22T22:52:29.276Z,83.80
2019-04-22T22:54:33.059Z,84.20
2019-04-22T22:57:01.809Z,84.10
2019-04-22T22:59:29.930Z,84.30
2019-04-22T23:01:58.480Z,84.00
2019-04-22T23:04:32.832Z,84.00
2019-04-22T23:07:09.286Z,84.70
2019-04-22T23:09:28.974Z,84.50
2019-04-22T23:12:22.582Z,84.50
2019-04-22T23:14:34.679Z,84.70
2019-04-22T23:16:47.493Z,84.60
2019-04-22T23:19:09.404Z,85.10
2019-04-22T23:21:41.699Z,84.70
2019-04-22T23:24:29.434Z,85.20
2019-04-22T23:27:04.335Z,85.10
2019-04-22T23:30:02.034Z,85.30
2019-04-22T23:32:31.972Z,85.30
2019-04-22T23:35:24.237Z,85.30
2019-04-22T23:38:03.460Z,85.40
2019-04-22T23:43:00.296Z,86.10
2019-04-22T23:45:35.560Z,90.10
2019-04-22T23:47:49.534Z,86.80
2019-04-22T23:50:31.183Z,86.80
2019-04-22T23:53:00.671Z,87.00
2019-04-22T23:55:33.257Z,87.10
2019-04-22T23:58:02.592Z,87.70
